Time;durP1;ratioP1;P1;durP2;ratioP2;P2;SDS_P1;SDS_P2;PMS_P1;PMS_P2;Temp;Humidity;BMP_temperature;BMP_pressure;BME280_temperature;BME280_humidity;BME280_pressure;Samples;Min_cycle;Max_cycle;Signal;HPM_P1;HPM_P2
2022/07/04 00:00:23;;;;;;;4.93;3.87;;;25.90;37.10;;;;;;5073769;28;20467;-46
2022/07/04 00:02:49;;;;;;;5.03;3.10;;;25.80;37.60;;;;;;5073865;28;20184;-43
2022/07/04 00:05:17;;;;;;;4.57;3.50;;;25.70;37.50;;;;;;5074063;28;20176;-45
2022/07/04 00:07:46;;;;;;;4.17;2.90;;;25.60;37.70;;;;;;5073455;28;20406;-46
2022/07/04 00:10:15;;;;;;;6.73;2.60;;;25.50;37.60;;;;;;5073676;28;20535;-44
2022/07/04 00:12:41;;;;;;;3.50;2.57;;;25.50;37.80;;;;;;5073697;28;20453;-44
2022/07/04 00:15:08;;;;;;;3.87;2.87;;;25.40;38.30;;;;;;5073913;28;20399;-44
2022/07/04 00:17:34;;;;;;;4.03;3.07;;;25.40;38.00;;;;;;5073309;28;20411;-44
2022/07/04 00:20:01;;;;;;;3.97;3.03;;;25.30;38.00;;;;;;5073394;28;20533;-45
2022/07/04 00:22:26;;;;;;;3.40;3.10;;;25.20;38.30;;;;;;5073424;28;20187;-44
2022/07/04 00:24:52;;;;;;;3.50;3.10;;;25.20;38.30;;;;;;5073447;28;20497;-43
2022/07/04 00:27:18;;;;;;;6.37;3.27;;;25.10;38.80;;;;;;5073238;28;20207;-45
2022/07/04 00:29:44;;;;;;;3.30;3.00;;;25.10;38.60;;;;;;5073183;28;20217;-45
2022/07/04 00:32:10;;;;;;;4.10;3.37;;;25.10;38.70;;;;;;5073239;28;20410;-45
2022/07/04 00:34:37;;;;;;;4.47;2.93;;;25.00;38.70;;;;;;5073462;28;20173;-45
2022/07/04 00:37:03;;;;;;;3.37;2.87;;;25.00;38.60;;;;;;5072984;28;20632;-44
2022/07/04 00:39:29;;;;;;;3.97;2.83;;;25.00;38.50;;;;;;5073276;28;20430;-43
2022/07/04 00:41:55;;;;;;;8.43;3.67;;;24.90;38.60;;;;;;5073190;28;20407;-44
2022/07/04 00:44:21;;;;;;;4.60;3.77;;;24.90;38.60;;;;;;5072816;28;20433;-44
2022/07/04 00:46:47;;;;;;;4.50;3.30;;;24.90;39.10;;;;;;5072798;28;20425;-44
2022/07/04 00:49:14;;;;;;;4.03;3.30;;;24.80;38.80;;;;;;5072960;28;20237;-43
2022/07/04 00:51:42;;;;;;;3.80;2.60;;;24.80;38.60;;;;;;5072793;28;20464;-45
2022/07/04 00:54:10;;;;;;;4.17;2.60;;;24.80;38.00;;;;;;5072975;28;20801;-43
2022/07/04 00:56:37;;;;;;;3.60;2.60;;;24.90;37.90;;;;;;5072565;28;20410;-43
2022/07/04 00:59:03;;;;;;;3.53;3.00;;;25.00;37.60;;;;;;5072596;28;20443;-44
2022/07/04 01:01:29;;;;;;;3.63;2.80;;;25.00;38.00;;;;;;5072693;28;20445;-44
2022/07/04 01:03:56;;;;;;;3.70;2.67;;;25.10;37.20;;;;;;5072650;28;20413;-45
2022/07/04 01:06:22;;;;;;;2.80;2.27;;;25.10;37.20;;;;;;5072701;28;20176;-44
2022/07/04 01:08:48;;;;;;;3.03;2.03;;;25.10;37.20;;;;;;5072448;28;20474;-44
2022/07/04 01:11:15;;;;;;;2.73;2.37;;;25.10;37.00;;;;;;5072819;28;20763;-43
2022/07/04 01:13:41;;;;;;;5.03;2.53;;;25.10;37.00;;;;;;5072391;28;20403;-44
2022/07/04 01:16:09;;;;;;;2.40;2.00;;;25.00;37.00;;;;;;5072293;28;20442;-45
2022/07/04 01:18:35;;;;;;;3.43;2.80;;;25.00;37.00;;;;;;5072647;28;20912;-43
2022/07/04 01:21:01;;;;;;;3.23;2.93;;;25.00;37.00;;;;;;5072291;28;20509;-47
2022/07/04 01:23:27;;;;;;;4.43;2.67;;;24.90;36.90;;;;;;5072457;28;20486;-43
2022/07/04 01:25:53;;;;;;;3.30;2.47;;;24.90;37.00;;;;;;5072189;28;20403;-43
2022/07/04 01:28:20;;;;;;;3.10;2.33;;;24.90;36.80;;;;;;5072359;28;20919;-46
2022/07/04 01:30:46;;;;;;;2.70;1.83;;;24.90;36.90;;;;;;5072378;28;20447;-42
2022/07/04 01:33:12;;;;;;;2.80;2.40;;;24.80;36.70;;;;;;5072232;28;20441;-44
2022/07/04 01:35:38;;;;;;;3.27;2.27;;;24.80;36.70;;;;;;5071965;28;20172;-43
2022/07/04 01:38:04;;;;;;;2.33;1.93;;;24.80;36.80;;;;;;5072180;28;20169;-44
2022/07/04 01:40:30;;;;;;;2.73;2.30;;;24.80;36.60;;;;;;5072116;28;20192;-44
2022/07/04 01:42:58;;;;;;;2.97;2.27;;;24.80;36.40;;;;;;5072077;28;20918;-44
2022/07/04 01:45:24;;;;;;;2.50;2.30;;;24.70;36.60;;;;;;5072031;28;20418;-44
2022/07/04 01:47:50;;;;;;;3.07;2.17;;;24.70;36.40;;;;;;5071906;28;20421;-45
2022/07/04 01:50:16;;;;;;;3.03;2.30;;;24.70;36.50;;;;;;5071849;28;20451;-45
2022/07/04 01:52:43;;;;;;;2.70;2.33;;;24.70;36.50;;;;;;5072272;28;20200;-45
2022/07/04 01:55:10;;;;;;;2.50;1.90;;;24.60;36.30;;;;;;5072027;28;20444;-44
2022/07/04 01:57:37;;;;;;;3.53;2.33;;;24.60;36.30;;;;;;5070942;28;20410;-47
2022/07/04 02:02:49;;;;;;;2.50;2.30;;;24.60;36.20;;;;;;5072296;28;20901;-43
2022/07/04 02:05:16;;;;;;;2.33;2.00;;;24.60;36.20;;;;;;5071849;28;20408;-44
2022/07/04 02:07:42;;;;;;;2.60;2.00;;;24.50;36.30;;;;;;5071570;28;20615;-44
2022/07/04 02:10:08;;;;;;;2.90;2.17;;;24.50;36.30;;;;;;5071934;28;20465;-46
2022/07/04 02:15:18;;;;;;;2.73;2.20;;;24.50;36.30;;;;;;5071883;28;20387;-44
2022/07/04 02:17:44;;;;;;;3.43;2.07;;;24.50;36.60;;;;;;5071629;28;20498;-46
2022/07/04 02:20:10;;;;;;;3.20;2.33;;;24.50;36.60;;;;;;5071708;28;20208;-43
2022/07/04 02:22:36;;;;;;;2.70;2.23;;;24.50;36.50;;;;;;5071717;28;20184;-43
2022/07/04 02:25:02;;;;;;;2.17;1.90;;;24.40;36.70;;;;;;5071813;28;20409;-43
2022/07/04 02:27:28;;;;;;;4.50;2.57;;;24.30;36.50;;;;;;5071783;28;20184;-43
2022/07/04 02:29:54;;;;;;;4.10;2.07;;;24.30;36.60;;;;;;5071649;28;20458;-43
2022/07/04 02:32:20;;;;;;;2.50;2.00;;;24.30;36.60;;;;;;5071937;28;20217;-43
2022/07/04 02:34:45;;;;;;;3.23;2.47;;;24.20;36.60;;;;;;5071802;28;20528;-43
2022/07/04 02:37:11;;;;;;;2.90;2.27;;;24.20;36.70;;;;;;5071698;28;20544;-44
2022/07/04 02:39:37;;;;;;;2.43;2.20;;;24.20;36.80;;;;;;5071560;28;20691;-43
2022/07/04 02:42:03;;;;;;;3.50;2.30;;;24.20;36.80;;;;;;5071871;28;20770;-45
2022/07/04 02:44:30;;;;;;;2.93;2.40;;;24.20;36.90;;;;;;5071700;28;20180;-44
2022/07/04 02:46:56;;;;;;;2.77;2.33;;;24.10;37.10;;;;;;5071247;28;20410;-44
2022/07/04 02:49:22;;;;;;;3.23;2.27;;;24.10;37.20;;;;;;5071498;28;20515;-44
2022/07/04 02:51:48;;;;;;;4.77;2.33;;;24.10;37.20;;;;;;5071440;28;20406;-44
2022/07/04 02:54:15;;;;;;;2.73;2.43;;;24.00;37.10;;;;;;5071392;28;20398;-42
2022/07/04 02:56:41;;;;;;;3.07;2.50;;;24.00;37.10;;;;;;5071482;28;20494;-46
2022/07/04 02:59:07;;;;;;;4.67;2.30;;;24.00;37.10;;;;;;5071300;28;20791;-46
2022/07/04 03:01:33;;;;;;;2.93;2.10;;;24.00;37.30;;;;;;5071648;28;20501;-43
2022/07/04 03:03:59;;;;;;;2.20;1.90;;;23.90;37.40;;;;;;5071287;28;20445;-43
2022/07/04 03:06:25;;;;;;;2.50;2.00;;;23.90;37.50;;;;;;5071034;28;20894;-43
2022/07/04 03:08:52;;;;;;;2.47;2.20;;;23.90;37.70;;;;;;5074028;28;20242;-43
2022/07/04 03:11:19;;;;;;;2.70;2.20;;;23.90;38.00;;;;;;5075071;28;20403;-43
2022/07/04 03:13:44;;;;;;;3.77;2.40;;;23.80;38.10;;;;;;5075084;28;20407;-42
2022/07/04 03:16:10;;;;;;;2.90;2.23;;;23.80;38.40;;;;;;5074589;28;20772;-44
2022/07/04 03:18:37;;;;;;;3.27;2.47;;;23.80;38.20;;;;;;5074678;28;20434;-43
2022/07/04 03:21:04;;;;;;;3.03;2.20;;;23.70;38.20;;;;;;5074535;28;20192;-44
2022/07/04 03:23:31;;;;;;;3.70;2.50;;;23.70;38.10;;;;;;5074639;28;20410;-46
2022/07/04 03:25:57;;;;;;;4.80;2.40;;;23.70;38.10;;;;;;5074295;28;21014;-43
2022/07/04 03:28:23;;;;;;;3.00;2.00;;;23.70;38.40;;;;;;5075005;28;20434;-45
2022/07/04 03:30:48;;;;;;;2.90;2.17;;;23.70;38.20;;;;;;5075284;28;20228;-44
2022/07/04 03:33:14;;;;;;;11.20;2.90;;;23.70;38.40;;;;;;5074729;28;20413;-44
2022/07/04 03:35:40;;;;;;;3.00;2.50;;;23.70;38.40;;;;;;5074832;28;20655;-47
2022/07/04 03:38:06;;;;;;;2.43;2.10;;;23.70;38.60;;;;;;5075153;28;20179;-45
2022/07/04 03:40:35;;;;;;;3.10;2.50;;;23.70;38.30;;;;;;5075237;28;20427;-45
2022/07/04 03:43:01;;;;;;;3.10;2.60;;;23.80;38.50;;;;;;5075276;28;20403;-45
2022/07/04 03:45:27;;;;;;;2.80;2.40;;;23.80;38.40;;;;;;5074681;28;20441;-44
2022/07/04 03:47:53;;;;;;;4.07;2.30;;;23.80;38.20;;;;;;5074380;28;20415;-44
2022/07/04 03:50:19;;;;;;;2.20;1.80;;;23.80;38.20;;;;;;5074777;28;20264;-45
2022/07/04 03:52:44;;;;;;;3.20;2.70;;;23.80;38.40;;;;;;5074744;28;20180;-45
2022/07/04 03:55:10;;;;;;;4.50;1.93;;;23.90;38.80;;;;;;5074397;28;20422;-44
2022/07/04 03:57:36;;;;;;;4.50;2.20;;;23.90;38.70;;;;;;5074197;28;20778;-43
2022/07/04 04:00:03;;;;;;;3.50;2.57;;;23.90;38.90;;;;;;5074175;28;20192;-44
2022/07/04 04:02:29;;;;;;;3.13;2.47;;;23.90;39.00;;;;;;5073674;28;20641;-44
2022/07/04 04:07:39;;;;;;;3.57;2.53;;;24.00;38.70;;;;;;5073661;28;20167;-43
2022/07/04 04:10:06;;;;;;;5.47;2.73;;;23.90;38.60;;;;;;5073661;28;20455;-44
2022/07/04 04:12:31;;;;;;;2.70;1.90;;;24.00;38.80;;;;;;5073571;28;20657;-44
2022/07/04 04:14:57;;;;;;;4.47;2.37;;;24.00;38.90;;;;;;5073544;28;20407;-43
2022/07/04 04:17:23;;;;;;;5.23;2.57;;;24.00;38.70;;;;;;5073366;28;20168;-44
2022/07/04 04:19:49;;;;;;;2.97;2.40;;;24.00;38.40;;;;;;5072709;28;20651;-47
2022/07/04 04:22:15;;;;;;;2.93;2.00;;;24.00;38.60;;;;;;5073478;28;20179;-42
2022/07/04 04:24:40;;;;;;;4.37;2.67;;;24.00;38.50;;;;;;5073362;28;20177;-43
2022/07/04 04:27:06;;;;;;;3.93;2.40;;;24.10;38.40;;;;;;5073403;28;20403;-44
2022/07/04 04:29:32;;;;;;;5.57;2.90;;;24.10;38.50;;;;;;5073147;28;20215;-43
2022/07/04 04:31:59;;;;;;;3.57;2.17;;;24.20;38.50;;;;;;5073033;28;20521;-44
2022/07/04 04:34:25;;;;;;;3.30;2.07;;;24.20;38.80;;;;;;5073154;28;20482;-43
2022/07/04 04:36:51;;;;;;;2.57;2.23;;;24.20;38.60;;;;;;5073268;28;20177;-46
2022/07/04 04:39:17;;;;;;;2.50;2.30;;;24.20;38.90;;;;;;5073337;28;20692;-43
2022/07/04 04:41:42;;;;;;;6.13;2.57;;;24.20;38.40;;;;;;5073046;28;20177;-43
2022/07/04 04:44:08;;;;;;;3.53;2.60;;;24.30;38.60;;;;;;5072937;28;20176;-44
2022/07/04 04:46:34;;;;;;;3.03;2.73;;;24.30;38.90;;;;;;5072639;28;20647;-44
2022/07/04 04:49:00;;;;;;;2.30;2.03;;;24.30;38.90;;;;;;5072855;28;20228;-43
2022/07/04 04:51:25;;;;;;;3.20;2.83;;;24.40;38.90;;;;;;5072977;28;20169;-46
2022/07/04 04:53:51;;;;;;;3.30;2.53;;;24.40;39.10;;;;;;5072913;28;20192;-43
2022/07/04 04:56:17;;;;;;;3.67;2.57;;;24.40;38.90;;;;;;5072628;28;20176;-43
2022/07/04 04:58:43;;;;;;;3.03;2.80;;;24.50;39.10;;;;;;5072536;28;20459;-43
2022/07/04 05:01:09;;;;;;;4.20;2.80;;;24.60;39.30;;;;;;5072597;28;20184;-43
2022/07/04 05:03:34;;;;;;;4.47;3.20;;;24.60;39.50;;;;;;5072928;28;20172;-43
2022/07/04 05:06:00;;;;;;;3.03;2.67;;;24.50;39.20;;;;;;5072474;28;20175;-43
2022/07/04 05:08:27;;;;;;;3.57;2.90;;;24.50;39.20;;;;;;5072747;28;20615;-44
2022/07/04 05:10:53;;;;;;;2.93;2.60;;;24.40;39.20;;;;;;5072330;28;20950;-44
2022/07/04 05:13:19;;;;;;;5.00;2.97;;;24.30;39.80;;;;;;5072475;28;20486;-44
2022/07/04 05:15:46;;;;;;;3.20;2.57;;;24.30;40.00;;;;;;5072097;28;20829;-43
2022/07/04 05:18:12;;;;;;;3.97;3.57;;;24.30;40.30;;;;;;5072370;28;20464;-43
2022/07/04 05:20:39;;;;;;;3.50;3.03;;;24.30;40.50;;;;;;5072043;28;20508;-44
2022/07/04 05:23:05;;;;;;;3.17;2.60;;;24.30;40.50;;;;;;5072310;28;20418;-43
2022/07/04 05:25:32;;;;;;;2.80;2.60;;;24.40;40.40;;;;;;5072018;28;20928;-44
2022/07/04 05:27:58;;;;;;;4.90;2.70;;;24.40;40.50;;;;;;5072165;28;20436;-43
2022/07/04 05:30:24;;;;;;;4.23;2.47;;;24.50;40.80;;;;;;5071997;28;20545;-42
2022/07/04 05:32:49;;;;;;;3.90;3.50;;;24.50;40.40;;;;;;5072358;28;20490;-43
2022/07/04 05:35:15;;;;;;;4.27;2.73;;;24.50;40.30;;;;;;5071877;28;20675;-44
2022/07/04 05:37:41;;;;;;;4.47;3.63;;;24.50;40.50;;;;;;5071876;28;20601;-44
2022/07/04 05:40:08;;;;;;;7.30;3.20;;;24.60;40.60;;;;;;5072028;28;20484;-44
2022/07/04 05:42:37;;;;;;;4.83;3.07;;;24.70;40.70;;;;;;5072094;28;20526;-43
2022/07/04 05:45:03;;;;;;;3.43;3.13;;;24.70;40.50;;;;;;5071923;28;20502;-46
2022/07/04 05:47:29;;;;;;;4.03;2.70;;;24.80;40.40;;;;;;5071575;28;20497;-44
2022/07/04 05:49:55;;;;;;;3.90;3.30;;;24.90;40.20;;;;;;5071458;28;20458;-43
2022/07/04 05:52:21;;;;;;;6.50;2.90;;;24.90;40.00;;;;;;5071763;28;20184;-45
2022/07/04 05:54:48;;;;;;;4.50;2.97;;;25.00;40.10;;;;;;5071948;28;20494;-46
2022/07/04 05:57:14;;;;;;;4.47;3.30;;;25.00;39.80;;;;;;5071798;28;20176;-44
2022/07/04 05:59:39;;;;;;;4.57;3.67;;;25.10;39.90;;;;;;5071570;28;20423;-44
2022/07/04 06:02:05;;;;;;;3.33;3.00;;;25.10;39.70;;;;;;5071601;28;20176;-44
2022/07/04 06:04:31;;;;;;;3.20;2.80;;;25.10;40.00;;;;;;5071806;28;20407;-45
2022/07/04 06:06:57;;;;;;;3.17;2.87;;;25.20;39.70;;;;;;5071280;28;20181;-44
2022/07/04 06:09:23;;;;;;;2.90;2.40;;;25.20;39.80;;;;;;5071387;28;20459;-45
2022/07/04 06:11:49;;;;;;;4.47;3.07;;;25.30;40.70;;;;;;5071492;28;20255;-45
2022/07/04 06:14:14;;;;;;;3.27;2.60;;;25.40;40.00;;;;;;5071687;28;20446;-45
2022/07/04 06:16:40;;;;;;;3.70;2.73;;;25.50;39.70;;;;;;5071238;28;20826;-45
2022/07/04 06:19:06;;;;;;;4.93;2.77;;;25.60;39.60;;;;;;5071561;28;20204;-46
2022/07/04 06:21:32;;;;;;;6.63;3.30;;;25.70;39.30;;;;;;5071566;28;20207;-46
2022/07/04 06:23:58;;;;;;;3.83;2.97;;;25.80;39.20;;;;;;5071793;28;20184;-45
2022/07/04 06:26:24;;;;;;;3.13;2.40;;;25.80;38.90;;;;;;5071155;28;20177;-45
2022/07/04 06:28:50;;;;;;;3.17;2.70;;;25.80;39.20;;;;;;5071062;28;20415;-45
2022/07/04 06:31:16;;;;;;;4.77;2.40;;;25.90;38.90;;;;;;5071904;28;20452;-46
2022/07/04 06:36:27;;;;;;;5.53;3.03;;;26.10;39.40;;;;;;5071590;28;20432;-45
2022/07/04 06:38:52;;;;;;;4.80;2.67;;;26.20;38.90;;;;;;5071638;28;20411;-46
2022/07/04 06:41:18;;;;;;;4.30;2.23;;;26.20;38.70;;;;;;5071464;28;20661;-46
2022/07/04 06:43:44;;;;;;;2.90;2.43;;;26.20;38.70;;;;;;5074115;28;20176;-46
2022/07/04 06:46:10;;;;;;;3.40;2.47;;;26.30;39.20;;;;;;5075375;28;20164;-45
2022/07/04 06:48:36;;;;;;;3.50;2.80;;;26.40;38.70;;;;;;5075239;28;20637;-46
2022/07/04 06:51:02;;;;;;;11.60;2.57;;;26.40;38.30;;;;;;5075333;28;20208;-46
2022/07/04 06:53:28;;;;;;;4.20;3.13;;;26.50;37.90;;;;;;5075244;28;20442;-45
2022/07/04 06:55:54;;;;;;;3.00;2.60;;;26.50;38.20;;;;;;5074893;28;20918;-47
2022/07/04 06:58:19;;;;;;;2.87;2.57;;;26.60;37.90;;;;;;5074879;28;20234;-46
2022/07/04 07:00:45;;;;;;;3.93;3.50;;;26.60;38.00;;;;;;5074962;28;20232;-45
2022/07/04 07:03:11;;;;;;;4.27;2.60;;;26.60;37.90;;;;;;5075056;28;20243;-46
2022/07/04 07:05:37;;;;;;;5.00;2.90;;;26.60;37.60;;;;;;5074799;28;20793;-45
2022/07/04 07:08:04;;;;;;;4.60;3.67;;;26.60;37.70;;;;;;5075150;28;20633;-45
2022/07/04 07:10:32;;;;;;;3.47;2.20;;;26.60;37.60;;;;;;5074601;28;20220;-46
2022/07/04 07:12:59;;;;;;;2.40;2.20;;;26.70;37.60;;;;;;5074893;28;20410;-46
2022/07/04 07:15:25;;;;;;;3.97;2.53;;;26.80;37.60;;;;;;5074991;28;20411;-45
2022/07/04 07:17:51;;;;;;;3.90;2.77;;;26.90;37.30;;;;;;5074822;28;20410;-46
2022/07/04 07:20:16;;;;;;;4.33;2.63;;;26.90;37.30;;;;;;5074449;28;20450;-46
2022/07/04 07:22:43;;;;;;;3.10;2.50;;;27.00;37.50;;;;;;5073371;28;20168;-46
2022/07/04 07:25:12;;;;;;;3.00;2.10;;;27.10;38.00;;;;;;5074800;28;20407;-46
2022/07/04 07:27:40;;;;;;;3.07;2.50;;;27.20;37.50;;;;;;5074328;28;20903;-47
2022/07/04 07:30:07;;;;;;;2.93;2.63;;;27.30;37.20;;;;;;5074347;28;20494;-46
2022/07/04 07:32:33;;;;;;;3.40;2.40;;;27.40;37.50;;;;;;5074637;28;20919;-46
2022/07/04 07:34:59;;;;;;;3.40;2.70;;;27.50;37.10;;;;;;5074304;28;20402;-45
2022/07/04 07:37:26;;;;;;;2.97;2.67;;;27.60;37.00;;;;;;5074068;28;20169;-46
2022/07/04 07:39:51;;;;;;;2.77;2.27;;;27.60;37.00;;;;;;5074390;28;20237;-47
2022/07/04 07:42:17;;;;;;;3.27;2.30;;;27.70;36.50;;;;;;5074344;28;20786;-46
2022/07/04 07:44:46;;;;;;;3.37;2.40;;;27.70;36.30;;;;;;5074276;28;20836;-45
2022/07/04 07:47:15;;;;;;;2.80;2.20;;;27.80;36.20;;;;;;5073951;28;20411;-46
2022/07/04 07:49:42;;;;;;;2.20;1.73;;;27.80;36.30;;;;;;5073915;28;20461;-46
2022/07/04 07:52:08;;;;;;;3.40;2.37;;;27.90;36.00;;;;;;5074060;28;20991;-47
2022/07/04 07:54:34;;;;;;;2.43;1.93;;;28.00;36.30;;;;;;5072854;28;20430;-44
2022/07/04 07:56:59;;;;;;;3.60;2.07;;;28.10;35.90;;;;;;5074061;28;20763;-45
2022/07/04 07:59:25;;;;;;;2.90;2.40;;;28.20;35.40;;;;;;5073892;28;20431;-45
2022/07/04 08:01:51;;;;;;;3.90;2.63;;;28.20;34.90;;;;;;5073912;28;20187;-47
2022/07/04 08:04:35;;;;;;;2.00;1.73;;;28.20;34.80;;;;;;5074103;28;20188;-45
2022/07/04 08:07:06;;;;;;;2.90;2.17;;;28.20;35.10;;;;;;5073611;28;20532;-46
2022/07/04 08:09:33;;;;;;;2.53;2.03;;;28.40;35.40;;;;;;5074021;28;20520;-45
2022/07/04 08:12:00;;;;;;;5.40;4.10;;;28.40;35.10;;;;;;5073599;28;20414;-45
2022/07/04 08:14:26;;;;;;;2.33;2.13;;;28.50;34.80;;;;;;5073610;28;20457;-44
2022/07/04 08:16:53;;;;;;;2.77;2.00;;;28.60;34.60;;;;;;5073401;28;20752;-44
2022/07/04 08:19:18;;;;;;;2.40;1.70;;;28.70;34.80;;;;;;5073532;28;20450;-45
2022/07/04 08:21:46;;;;;;;3.17;2.30;;;28.80;35.10;;;;;;5073541;28;20883;-45
2022/07/04 08:24:13;;;;;;;2.13;1.93;;;28.90;34.20;;;;;;5073558;28;20180;-45
2022/07/04 08:26:39;;;;;;;3.03;2.57;;;28.90;33.40;;;;;;5073067;28;20407;-45
2022/07/04 08:29:17;;;;;;;3.00;2.03;;;29.00;34.10;;;;;;5073123;28;20442;-44
2022/07/04 08:31:43;;;;;;;2.93;2.33;;;29.00;35.00;;;;;;5073345;28;20645;-44
2022/07/04 08:34:09;;;;;;;3.67;2.00;;;29.00;35.00;;;;;;5073193;28;20407;-44
2022/07/04 08:36:35;;;;;;;3.10;2.20;;;29.00;34.40;;;;;;5072915;28;20168;-43
2022/07/04 08:39:01;;;;;;;2.93;2.40;;;29.10;34.30;;;;;;5073009;28;20404;-45
2022/07/04 08:41:28;;;;;;;3.07;1.97;;;29.20;33.60;;;;;;5073074;28;20257;-46
2022/07/04 08:43:56;;;;;;;4.50;1.90;;;29.20;33.50;;;;;;5073029;28;20172;-45
2022/07/04 08:46:25;;;;;;;3.10;2.17;;;29.10;33.70;;;;;;5072922;28;20419;-45
2022/07/04 08:48:54;;;;;;;2.30;1.57;;;29.20;34.20;;;;;;5072778;28;20891;-44
2022/07/04 08:51:43;;;;;;;2.53;1.93;;;29.30;33.80;;;;;;5072868;28;20403;-45
2022/07/04 08:59:48;;;;;;;7.50;2.50;;;29.50;32.80;;;;;;5072942;28;20810;-44
2022/07/04 09:02:18;;;;;;;5.07;2.03;;;29.50;32.50;;;;;;5072712;28;20434;-47
2022/07/04 09:04:44;;;;;;;2.40;1.80;;;29.60;32.20;;;;;;5072867;28;20503;-44
2022/07/04 09:07:13;;;;;;;2.43;2.00;;;29.50;31.80;;;;;;5072093;28;20933;-44
2022/07/04 09:09:40;;;;;;;2.10;1.73;;;29.50;32.10;;;;;;5083530;22;20549;-46
2022/07/04 09:12:11;;;;;;;2.27;1.63;;;29.60;31.80;;;;;;5052889;28;20439;-46
2022/07/04 09:14:37;;;;;;;3.07;1.73;;;29.70;31.50;;;;;;5032654;28;20416;-46
2022/07/04 09:17:04;;;;;;;2.90;2.10;;;29.80;31.00;;;;;;5032356;28;20439;-47
2022/07/04 09:19:30;;;;;;;3.07;1.90;;;29.80;31.10;;;;;;5032468;28;20405;-46
2022/07/04 09:21:56;;;;;;;2.13;1.53;;;29.90;30.70;;;;;;5032362;28;20406;-46
2022/07/04 09:24:44;;;;;;;2.50;2.27;;;29.90;30.40;;;;;;5032441;28;20408;-46
2022/07/04 09:27:10;;;;;;;2.83;1.73;;;29.90;30.60;;;;;;5032211;28;20185;-47
2022/07/04 09:29:55;;;;;;;2.30;2.10;;;29.90;30.10;;;;;;5032290;28;20461;-47
2022/07/04 09:32:43;;;;;;;3.10;2.40;;;29.90;31.50;;;;;;5032471;28;20171;-46
2022/07/04 09:35:17;;;;;;;3.03;1.80;;;30.00;31.50;;;;;;5032394;28;20911;-48
2022/07/04 09:37:46;;;;;;;2.07;1.77;;;30.10;31.40;;;;;;5032112;28;20401;-46
2022/07/04 09:40:22;;;;;;;2.63;1.80;;;30.20;31.00;;;;;;5032152;28;20424;-48
2022/07/04 09:42:48;;;;;;;3.47;1.63;;;30.20;29.80;;;;;;5032198;28;20388;-46
2022/07/04 09:45:14;;;;;;;3.13;1.47;;;30.30;30.10;;;;;;5032092;28;20405;-49
2022/07/04 09:47:41;;;;;;;2.33;2.00;;;30.40;30.20;;;;;;5031945;28;20416;-48
2022/07/04 09:50:09;;;;;;;2.07;1.63;;;30.40;29.40;;;;;;5030802;28;20467;-48
2022/07/04 09:52:53;;;;;;;2.53;1.80;;;30.50;29.70;;;;;;5030814;28;20419;-49
2022/07/04 09:55:33;;;;;;;4.00;1.87;;;30.60;30.40;;;;;;5031964;28;20400;-47
2022/07/04 09:58:01;;;;;;;3.30;1.60;;;30.60;30.70;;;;;;5032278;28;20422;-48
2022/07/04 10:00:30;;;;;;;3.03;2.03;;;30.70;29.90;;;;;;5031924;28;20474;-50
2022/07/04 10:02:57;;;;;;;3.40;1.70;;;30.80;28.40;;;;;;5032035;28;20496;-49
2022/07/04 10:05:26;;;;;;;2.50;1.70;;;30.80;29.40;;;;;;5032015;28;20436;-49
2022/07/04 10:07:54;;;;;;;2.10;1.63;;;31.00;30.60;;;;;;5031814;28;20895;-49
2022/07/04 10:10:41;;;;;;;2.73;1.77;;;31.10;29.60;;;;;;5031851;28;20561;-48
2022/07/04 10:13:12;;;;;;;10.60;1.93;;;31.10;29.60;;;;;;5031781;28;20495;-50
2022/07/04 10:15:39;;;;;;;2.53;1.80;;;30.90;29.00;;;;;;5031791;28;20455;-48
2022/07/04 10:18:06;;;;;;;5.33;2.33;;;30.90;29.30;;;;;;5033719;28;20400;-50
2022/07/04 10:20:33;;;;;;;4.13;1.60;;;30.90;28.40;;;;;;5035863;28;20431;-50
2022/07/04 10:22:59;;;;;;;2.60;2.10;;;30.80;28.10;;;;;;5036021;28;20407;-48
2022/07/04 10:25:26;;;;;;;2.97;2.07;;;30.60;28.80;;;;;;5035858;28;20407;-48
2022/07/04 10:27:51;;;;;;;2.07;1.50;;;30.50;29.00;;;;;;5035747;28;20502;-48
2022/07/04 10:30:24;;;;;;;2.47;1.70;;;30.40;29.00;;;;;;5035663;28;20546;-46
2022/07/04 10:32:51;;;;;;;2.20;1.60;;;30.50;29.10;;;;;;5035791;28;20147;-46
2022/07/04 10:35:17;;;;;;;3.17;1.70;;;30.40;29.60;;;;;;5034400;28;20451;-45
2022/07/04 10:38:00;;;;;;;2.50;1.80;;;30.40;29.10;;;;;;5035244;28;20438;-47
2022/07/04 10:40:42;;;;;;;2.83;1.90;;;30.40;29.20;;;;;;5035460;28;20443;-46
2022/07/04 10:43:33;;;;;;;2.00;1.60;;;30.30;29.00;;;;;;5035744;28;20910;-47
2022/07/04 10:46:06;;;;;;;1.83;1.40;;;30.40;29.70;;;;;;5025450;28;20425;-49
2022/07/04 10:48:33;;;;;;;2.77;1.60;;;30.50;29.50;;;;;;5035591;28;20424;-48
2022/07/04 10:51:02;;;;;;;3.30;2.10;;;30.60;28.90;;;;;;5035350;28;20461;-46
2022/07/04 10:53:30;;;;;;;1.93;1.40;;;30.90;28.70;;;;;;5035228;28;20409;-46
2022/07/04 10:56:14;;;;;;;2.00;1.40;;;31.00;29.40;;;;;;5035105;28;20799;-48
2022/07/04 10:58:42;;;;;;;2.00;1.40;;;31.20;28.50;;;;;;5035236;28;20396;-47
2022/07/04 11:01:12;;;;;;;2.50;1.60;;;31.40;29.10;;;;;;5035273;28;20423;-47
2022/07/04 11:04:04;;;;;;;2.17;1.67;;;31.60;28.10;;;;;;5035338;28;20836;-47
2022/07/04 11:06:33;;;;;;;4.13;2.03;;;31.70;26.50;;;;;;5033767;28;20908;-47
2022/07/04 11:09:18;;;;;;;3.10;1.63;;;31.70;26.90;;;;;;5035002;28;20892;-48
2022/07/04 11:12:03;;;;;;;2.00;1.33;;;31.80;27.60;;;;;;5034975;28;20627;-48
2022/07/04 11:14:37;;;;;;;2.43;1.73;;;32.00;28.30;;;;;;5034974;28;20418;-48
2022/07/04 11:17:14;;;;;;;2.20;1.73;;;32.10;27.20;;;;;;5034878;28;20443;-47
2022/07/04 11:19:40;;;;;;;2.07;1.30;;;32.20;27.10;;;;;;5035133;28;20470;-46
2022/07/04 11:22:08;;;;;;;3.33;1.70;;;32.30;27.20;;;;;;5034880;28;20408;-47
2022/07/04 11:24:34;;;;;;;2.20;1.50;;;32.40;26.60;;;;;;5034914;28;20400;-47
2022/07/04 11:27:01;;;;;;;3.73;1.90;;;32.50;27.10;;;;;;5034597;28;20408;-48
2022/07/04 11:29:28;;;;;;;4.67;2.13;;;32.50;26.50;;;;;;5034305;28;20948;-48
2022/07/04 11:31:54;;;;;;;2.80;1.80;;;32.60;25.90;;;;;;5034854;28;20468;-47
2022/07/04 11:34:21;;;;;;;2.40;1.50;;;32.60;26.40;;;;;;5034627;28;20405;-48
2022/07/04 11:36:49;;;;;;;2.33;1.43;;;32.80;26.20;;;;;;5034581;28;20512;-48
2022/07/04 11:39:19;;;;;;;2.50;1.57;;;32.90;26.70;;;;;;5034489;28;20498;-48
2022/07/04 11:47:36;;;;;;;2.47;2.20;;;33.10;26.20;;;;;;5034340;28;20439;-46
2022/07/04 11:50:03;;;;;;;2.50;1.70;;;33.20;25.60;;;;;;5034199;28;20460;-48
2022/07/04 11:52:38;;;;;;;1.90;1.20;;;33.20;24.60;;;;;;5034270;28;20429;-49
2022/07/04 11:55:09;;;;;;;2.00;1.60;;;33.20;25.40;;;;;;5034170;28;20396;-47
2022/07/04 11:57:37;;;;;;;2.53;1.63;;;33.20;26.20;;;;;;5033955;28;20427;-47
2022/07/04 12:00:10;;;;;;;2.50;1.27;;;33.20;26.20;;;;;;5034049;28;20494;-48
2022/07/04 12:02:37;;;;;;;2.83;1.70;;;33.30;26.00;;;;;;5034014;28;20493;-48
2022/07/04 12:05:05;;;;;;;3.70;1.60;;;33.50;25.80;;;;;;5034025;28;20466;-48
2022/07/04 12:07:33;;;;;;;2.33;1.30;;;33.60;25.50;;;;;;5033899;28;20408;-48
2022/07/04 12:10:08;;;;;;;2.37;1.17;;;33.70;24.40;;;;;;5033691;28;20544;-48
2022/07/04 12:12:34;;;;;;;2.77;1.20;;;33.80;24.40;;;;;;5033833;28;20408;-48
2022/07/04 12:15:07;;;;;;;3.07;1.50;;;33.80;24.50;;;;;;5033706;28;20405;-47
2022/07/04 12:17:38;;;;;;;5.63;2.07;;;33.90;24.70;;;;;;5033801;28;20427;-47
2022/07/04 12:20:17;;;;;;;3.60;1.40;;;33.80;24.10;;;;;;5033572;28;20916;-48
2022/07/04 12:22:50;;;;;;;2.00;1.10;;;33.80;23.30;;;;;;5033592;28;20405;-48
2022/07/04 12:25:28;;;;;;;2.23;1.50;;;33.60;24.80;;;;;;5033478;28;20405;-48
2022/07/04 12:28:05;;;;;;;2.57;1.73;;;33.50;24.60;;;;;;5033412;28;20398;-48
2022/07/04 12:30:34;;;;;;;5.30;1.70;;;33.30;24.70;;;;;;5033367;28;20501;-48
2022/07/04 12:33:09;;;;;;;1.73;1.07;;;33.30;24.80;;;;;;5032155;28;20409;-47
2022/07/04 12:35:44;;;;;;;3.13;1.30;;;33.40;24.70;;;;;;5033152;28;20380;-47
2022/07/04 12:38:11;;;;;;;4.03;1.47;;;33.60;25.60;;;;;;5033693;28;20856;-48
2022/07/04 12:41:11;;;;;;;2.20;1.50;;;33.70;25.40;;;;;;5032593;28;20425;-47
2022/07/04 12:43:39;;;;;;;4.47;1.20;;;33.90;24.90;;;;;;5029530;28;20416;-48
2022/07/04 12:46:06;;;;;;;2.57;1.37;;;34.00;25.90;;;;;;5032851;28;20753;-49
2022/07/04 12:48:32;;;;;;;2.50;1.60;;;34.20;24.30;;;;;;5033153;28;20528;-48
2022/07/04 12:51:17;;;;;;;4.73;1.60;;;34.20;24.50;;;;;;5032934;28;20925;-47
2022/07/04 12:53:45;;;;;;;2.20;1.30;;;34.40;23.80;;;;;;5033035;28;20436;-49
2022/07/04 12:56:33;;;;;;;5.10;1.60;;;34.40;24.50;;;;;;5032840;28;20940;-49
2022/07/04 12:59:02;;;;;;;3.27;1.70;;;34.60;24.60;;;;;;5033052;28;20388;-49
2022/07/04 13:01:28;;;;;;;2.57;1.30;;;34.70;24.60;;;;;;5032810;28;20472;-48
2022/07/04 13:03:54;;;;;;;2.10;1.27;;;34.60;23.40;;;;;;5031594;28;20943;-48
2022/07/04 13:06:20;;;;;;;2.03;1.37;;;34.60;24.80;;;;;;5032616;28;20409;-48
2022/07/04 13:08:46;;;;;;;2.10;1.40;;;34.70;24.20;;;;;;5032762;28;20473;-48
2022/07/04 13:13:56;;;;;;;3.50;1.27;;;34.80;23.50;;;;;;5032756;28;20403;-48